CheckWX is a tool to help pilots better visualize weather data.  It is not intended as a substitute for an official pre-flight weather briefing.

18:12:47 UTC

CYQL METAR
Lethbridge County Airport
Lethbridge, Canada
Current

1 hour ago

CYQL 251700Z 03005KT 340V050 30SM FEW090 BKN250 16/09 A2988 RMK AC2CI5 SLP112 DENSITY ALT 4000FT
Observed
Aug-25 @ 17:00 UTC
Wind
  • 030° at 5 KTS
Visibility
30 SM
Flight Rules
VFR
Cloud Levels
  • Few at 9,000' AGL
  • Broken at 25,000' AGL
Temperature
16°C / 61°F
Dewpoint
C / 48°F
Humidity
63%
Altimeter
29.88" Hg
Pressure
1011.82 hPa
Previous

2 hours ago

CYQL 251600Z VRB02KT 30SM SCT090 BKN250 15/09 A2988 RMK ACC3CI4 SLP113 DENSITY ALT 3800FT
Observed
Aug-25 @ 16:00 UTC
Wind
  • Variable at 2 KTS
Visibility
30 SM
Flight Rules
VFR
Cloud Levels
  • Scattered at 9,000' AGL
  • Broken at 25,000' AGL
Temperature
15°C / 59°F
Dewpoint
C / 48°F
Humidity
68%
Altimeter
29.88" Hg
Pressure
1011.82 hPa
Previous

3 hours ago

CYQL 251500Z VRB02KT 25SM FEW080 BKN160 13/09 A2987 RMK AC1AC6 SLP112 DENSITY ALT 3600FT
Observed
Aug-25 @ 15:00 UTC
Wind
  • Variable at 2 KTS
Visibility
25 SM
Flight Rules
VFR
Cloud Levels
  • Few at 8,000' AGL
  • Broken at 16,000' AGL
Temperature
13°C / 55°F
Dewpoint
C / 48°F
Humidity
77%
Altimeter
29.87" Hg
Pressure
1011.52 hPa